KDAA/DAA METAR and TAF weather

Enter ICAO airport designator
Station Type Date Time Source
KDAA METAR 2020/09/19 01:56 UTC NOAA

KDAA 190156Z AUTO 34003KT 10SM CLR 17/09 A3011 RMK AO2 SLP199 T01670094 $


Station Type Date Time Source
KDAA Decoded METAR 2020/09/19 01:56 UTC NOAA

Fort Belvoir, VA, United States (KDAA) 38-43N 077-11W
Sep 18, 2020 - 09:56 PM EDT / 2020.09.19 0156 UTC
Wind: from the NNW (340 degrees) at 3 MPH (3 KT):0
Visibility: 10 mile(s):0
Sky conditions: clear
Temperature: 62.1 F (16.7 C)
Dew Point: 48.9 F (9.4 C)
Relative Humidity: 62%
Pressure (altimeter): 30.11 in. Hg (1019 hPa)
ob: KDAA 190156Z AUTO 34003KT 10SM CLR 17/09 A3011 RMK AO2 SLP199 T01670094
cycle: 2

Station Type Date Time Source
KDAA TAF 2020/09/18 20:06 UTC NOAA

TAF TAF KDAA 182000Z 1820/2002 36012KT 9999 SCT040 QNH2996INS
BECMG 1821/1822 36009KT 9999 SCT045 QNH2999INS
BECMG 1902/1903 36009KT 9999 SKC QNH3013INS
BECMG 1914/1915 02012KT 9999 SKC QNH3028INS
BECMG 1923/1924 05006KT 9999 SKC QNH3031INS TX21/1920Z TN08/1911Z LAST NO
AMDS 1901 NEXT 2112

Example: see airport list